sensor_id;sensor_type;location;lat;lon;timestamp;P1;durP1;ratioP1;P2;durP2;ratioP2
934;SDS011;454;53.254;10.400;2023-11-22T05:00:58;2.55;;;2.42;;
934;SDS011;454;53.254;10.400;2023-11-22T05:03:24;3.80;;;2.92;;
934;SDS011;454;53.254;10.400;2023-11-22T05:05:51;4.03;;;3.83;;
934;SDS011;454;53.254;10.400;2023-11-22T05:08:18;3.13;;;2.88;;
934;SDS011;454;53.254;10.400;2023-11-22T05:10:44;4.35;;;4.05;;
934;SDS011;454;53.254;10.400;2023-11-22T05:13:11;3.42;;;3.13;;
934;SDS011;454;53.254;10.400;2023-11-22T05:15:38;4.80;;;3.35;;
934;SDS011;454;53.254;10.400;2023-11-22T05:18:06;7.18;;;3.53;;
934;SDS011;454;53.254;10.400;2023-11-22T05:20:33;3.50;;;3.22;;
934;SDS011;454;53.254;10.400;2023-11-22T05:23:00;3.90;;;3.60;;
934;SDS011;454;53.254;10.400;2023-11-22T05:25:27;4.95;;;2.40;;
934;SDS011;454;53.254;10.400;2023-11-22T05:27:54;3.20;;;2.95;;
934;SDS011;454;53.254;10.400;2023-11-22T05:30:21;3.58;;;3.28;;
934;SDS011;454;53.254;10.400;2023-11-22T05:32:48;4.53;;;3.30;;
934;SDS011;454;53.254;10.400;2023-11-22T05:35:17;5.70;;;5.20;;
934;SDS011;454;53.254;10.400;2023-11-22T05:37:44;4.55;;;4.10;;
934;SDS011;454;53.254;10.400;2023-11-22T05:40:11;4.00;;;3.70;;
934;SDS011;454;53.254;10.400;2023-11-22T05:42:40;3.45;;;3.22;;
934;SDS011;454;53.254;10.400;2023-11-22T05:45:08;3.92;;;3.63;;
934;SDS011;454;53.254;10.400;2023-11-22T05:47:35;4.35;;;4.00;;
934;SDS011;454;53.254;10.400;2023-11-22T05:50:02;5.22;;;3.63;;
934;SDS011;454;53.254;10.400;2023-11-22T05:52:31;4.57;;;3.60;;
934;SDS011;454;53.254;10.400;2023-11-22T05:54:58;3.95;;;3.55;;
934;SDS011;454;53.254;10.400;2023-11-22T05:57:28;3.95;;;2.83;;
934;SDS011;454;53.254;10.400;2023-11-22T05:59:55;3.08;;;2.83;;
934;SDS011;454;53.254;10.400;2023-11-22T06:02:21;3.80;;;3.50;;
934;SDS011;454;53.254;10.400;2023-11-22T06:04:48;2.33;;;2.13;;
934;SDS011;454;53.254;10.400;2023-11-22T06:07:15;3.58;;;2.85;;
934;SDS011;454;53.254;10.400;2023-11-22T06:09:43;3.55;;;3.40;;
934;SDS011;454;53.254;10.400;2023-11-22T06:12:10;3.78;;;2.75;;
934;SDS011;454;53.254;10.400;2023-11-22T06:14:37;3.05;;;2.75;;
934;SDS011;454;53.254;10.400;2023-11-22T06:17:04;1.92;;;1.92;;
934;SDS011;454;53.254;10.400;2023-11-22T06:19:31;3.38;;;3.13;;
934;SDS011;454;53.254;10.400;2023-11-22T06:21:58;3.47;;;3.30;;
934;SDS011;454;53.254;10.400;2023-11-22T06:24:25;4.40;;;3.25;;
934;SDS011;454;53.254;10.400;2023-11-22T06:26:54;3.20;;;2.65;;
934;SDS011;454;53.254;10.400;2023-11-22T06:29:20;2.95;;;2.83;;
934;SDS011;454;53.254;10.400;2023-11-22T06:31:47;3.10;;;2.90;;
934;SDS011;454;53.254;10.400;2023-11-22T06:34:14;3.50;;;3.00;;
934;SDS011;454;53.254;10.400;2023-11-22T06:36:41;2.60;;;2.40;;
934;SDS011;454;53.254;10.400;2023-11-22T06:39:08;3.42;;;3.13;;
934;SDS011;454;53.254;10.400;2023-11-22T06:41:38;2.88;;;2.67;;
934;SDS011;454;53.254;10.400;2023-11-22T06:44:07;5.78;;;4.18;;
934;SDS011;454;53.254;10.400;2023-11-22T06:46:34;3.70;;;3.50;;
934;SDS011;454;53.254;10.400;2023-11-22T06:49:02;3.90;;;3.55;;
934;SDS011;454;53.254;10.400;2023-11-22T06:51:30;3.40;;;3.10;;
934;SDS011;454;53.254;10.400;2023-11-22T06:53:57;4.38;;;4.03;;
934;SDS011;454;53.254;10.400;2023-11-22T06:56:24;5.60;;;5.20;;
934;SDS011;454;53.254;10.400;2023-11-22T06:58:50;5.30;;;4.90;;
934;SDS011;454;53.254;10.400;2023-11-22T07:01:22;7.25;;;4.00;;
934;SDS011;454;53.254;10.400;2023-11-22T07:03:50;7.88;;;5.65;;
934;SDS011;454;53.254;10.400;2023-11-22T07:06:18;5.63;;;5.30;;
934;SDS011;454;53.254;10.400;2023-11-22T07:08:47;4.78;;;4.30;;
934;SDS011;454;53.254;10.400;2023-11-22T07:11:20;5.22;;;4.70;;
934;SDS011;454;53.254;10.400;2023-11-22T07:13:49;3.72;;;3.53;;
934;SDS011;454;53.254;10.400;2023-11-22T07:16:16;5.38;;;4.10;;
934;SDS011;454;53.254;10.400;2023-11-22T07:18:45;4.28;;;3.92;;
934;SDS011;454;53.254;10.400;2023-11-22T07:21:12;4.18;;;3.83;;
934;SDS011;454;53.254;10.400;2023-11-22T07:23:39;5.57;;;5.03;;
934;SDS011;454;53.254;10.400;2023-11-22T07:26:06;4.93;;;4.53;;
934;SDS011;454;53.254;10.400;2023-11-22T07:28:33;6.80;;;4.38;;
934;SDS011;454;53.254;10.400;2023-11-22T07:31:01;6.47;;;5.60;;
934;SDS011;454;53.254;10.400;2023-11-22T07:33:32;3.50;;;3.08;;
934;SDS011;454;53.254;10.400;2023-11-22T07:35:59;3.45;;;3.17;;
934;SDS011;454;53.254;10.400;2023-11-22T07:38:28;5.35;;;4.93;;
934;SDS011;454;53.254;10.400;2023-11-22T07:40:56;6.40;;;5.78;;
934;SDS011;454;53.254;10.400;2023-11-22T07:43:23;4.30;;;4.03;;
934;SDS011;454;53.254;10.400;2023-11-22T07:45:50;4.50;;;4.10;;
934;SDS011;454;53.254;10.400;2023-11-22T07:48:17;9.20;;;6.72;;
934;SDS011;454;53.254;10.400;2023-11-22T07:50:45;12.65;;;8.30;;
934;SDS011;454;53.254;10.400;2023-11-22T07:53:14;7.60;;;5.03;;
934;SDS011;454;53.254;10.400;2023-11-22T07:55:42;5.10;;;4.10;;
934;SDS011;454;53.254;10.400;2023-11-22T07:58:09;9.52;;;5.80;;
934;SDS011;454;53.254;10.400;2023-11-22T08:00:37;9.77;;;5.35;;
934;SDS011;454;53.254;10.400;2023-11-22T08:03:03;5.53;;;4.63;;
934;SDS011;454;53.254;10.400;2023-11-22T08:05:31;4.50;;;4.25;;
934;SDS011;454;53.254;10.400;2023-11-22T08:08:02;6.00;;;5.43;;
934;SDS011;454;53.254;10.400;2023-11-22T08:10:33;6.53;;;5.70;;
934;SDS011;454;53.254;10.400;2023-11-22T08:13:00;5.82;;;5.32;;
934;SDS011;454;53.254;10.400;2023-11-22T08:15:27;9.75;;;6.32;;
934;SDS011;454;53.254;10.400;2023-11-22T08:17:56;6.15;;;5.53;;
934;SDS011;454;53.254;10.400;2023-11-22T08:20:23;7.22;;;6.53;;
934;SDS011;454;53.254;10.400;2023-11-22T08:22:50;6.53;;;5.35;;
934;SDS011;454;53.254;10.400;2023-11-22T08:25:19;5.55;;;4.82;;
934;SDS011;454;53.254;10.400;2023-11-22T08:27:45;6.32;;;5.88;;
934;SDS011;454;53.254;10.400;2023-11-22T08:30:12;6.55;;;5.22;;
934;SDS011;454;53.254;10.400;2023-11-22T08:32:41;6.22;;;5.63;;
934;SDS011;454;53.254;10.400;2023-11-22T08:35:09;6.68;;;6.28;;
934;SDS011;454;53.254;10.400;2023-11-22T08:37:38;6.85;;;5.35;;
934;SDS011;454;53.254;10.400;2023-11-22T08:40:07;18.15;;;10.35;;
934;SDS011;454;53.254;10.400;2023-11-22T08:42:37;21.48;;;12.70;;
934;SDS011;454;53.254;10.400;2023-11-22T08:45:06;23.55;;;11.85;;
934;SDS011;454;53.254;10.400;2023-11-22T08:47:34;9.80;;;8.13;;
934;SDS011;454;53.254;10.400;2023-11-22T08:50:01;14.15;;;7.32;;
934;SDS011;454;53.254;10.400;2023-11-22T08:52:30;9.82;;;7.90;;
934;SDS011;454;53.254;10.400;2023-11-22T08:54:57;17.52;;;11.93;;
934;SDS011;454;53.254;10.400;2023-11-22T08:57:25;23.75;;;14.77;;
934;SDS011;454;53.254;10.400;2023-11-22T08:59:53;16.55;;;9.45;;
934;SDS011;454;53.254;10.400;2023-11-22T09:02:21;6.50;;;5.35;;
934;SDS011;454;53.254;10.400;2023-11-22T09:04:48;13.20;;;7.85;;
934;SDS011;454;53.254;10.400;2023-11-22T09:07:15;7.13;;;6.43;;
934;SDS011;454;53.254;10.400;2023-11-22T09:09:43;9.77;;;7.55;;
934;SDS011;454;53.254;10.400;2023-11-22T09:12:10;9.07;;;7.05;;
934;SDS011;454;53.254;10.400;2023-11-22T09:14:38;10.18;;;6.70;;
934;SDS011;454;53.254;10.400;2023-11-22T09:17:08;10.52;;;6.15;;
934;SDS011;454;53.254;10.400;2023-11-22T09:19:35;11.93;;;6.68;;
934;SDS011;454;53.254;10.400;2023-11-22T09:22:03;8.50;;;7.57;;
934;SDS011;454;53.254;10.400;2023-11-22T09:24:32;10.05;;;6.65;;
934;SDS011;454;53.254;10.400;2023-11-22T09:27:01;10.00;;;7.07;;
934;SDS011;454;53.254;10.400;2023-11-22T09:29:30;13.80;;;9.80;;
934;SDS011;454;53.254;10.400;2023-11-22T09:31:57;16.40;;;10.25;;
934;SDS011;454;53.254;10.400;2023-11-22T09:34:27;14.40;;;8.80;;
934;SDS011;454;53.254;10.400;2023-11-22T09:36:54;10.38;;;6.97;;
934;SDS011;454;53.254;10.400;2023-11-22T09:39:21;18.80;;;11.80;;
934;SDS011;454;53.254;10.400;2023-11-22T09:41:50;12.30;;;8.57;;
934;SDS011;454;53.254;10.400;2023-11-22T09:44:18;7.60;;;6.55;;
934;SDS011;454;53.254;10.400;2023-11-22T09:46:46;9.95;;;7.25;;
934;SDS011;454;53.254;10.400;2023-11-22T09:49:18;11.07;;;7.40;;
934;SDS011;454;53.254;10.400;2023-11-22T09:51:52;7.60;;;6.70;;
934;SDS011;454;53.254;10.400;2023-11-22T09:54:22;6.18;;;5.20;;
934;SDS011;454;53.254;10.400;2023-11-22T09:56:55;7.88;;;6.32;;
934;SDS011;454;53.254;10.400;2023-11-22T09:59:26;6.90;;;6.05;;
934;SDS011;454;53.254;10.400;2023-11-22T10:01:54;5.88;;;4.63;;
934;SDS011;454;53.254;10.400;2023-11-22T10:04:24;16.80;;;8.40;;
934;SDS011;454;53.254;10.400;2023-11-22T10:06:55;15.68;;;9.85;;
934;SDS011;454;53.254;10.400;2023-11-22T10:09:23;20.48;;;10.70;;
934;SDS011;454;53.254;10.400;2023-11-22T10:11:52;15.45;;;9.98;;
934;SDS011;454;53.254;10.400;2023-11-22T10:14:23;10.82;;;7.53;;
934;SDS011;454;53.254;10.400;2023-11-22T10:16:57;6.93;;;6.25;;
934;SDS011;454;53.254;10.400;2023-11-22T10:19:26;10.20;;;6.22;;
934;SDS011;454;53.254;10.400;2023-11-22T10:22:03;10.85;;;7.00;;
934;SDS011;454;53.254;10.400;2023-11-22T10:24:31;9.95;;;6.07;;
934;SDS011;454;53.254;10.400;2023-11-22T10:26:59;9.25;;;7.05;;
934;SDS011;454;53.254;10.400;2023-11-22T10:29:26;24.00;;;13.18;;
934;SDS011;454;53.254;10.400;2023-11-22T10:31:53;15.93;;;10.15;;
934;SDS011;454;53.254;10.400;2023-11-22T10:34:22;10.75;;;6.75;;
934;SDS011;454;53.254;10.400;2023-11-22T10:36:50;10.88;;;7.00;;
934;SDS011;454;53.254;10.400;2023-11-22T10:39:22;10.95;;;6.45;;
934;SDS011;454;53.254;10.400;2023-11-22T10:41:51;4.20;;;3.72;;
934;SDS011;454;53.254;10.400;2023-11-22T10:44:20;3.25;;;2.95;;
934;SDS011;454;53.254;10.400;2023-11-22T10:46:47;3.17;;;3.00;;
934;SDS011;454;53.254;10.400;2023-11-22T10:49:16;3.38;;;3.15;;
934;SDS011;454;53.254;10.400;2023-11-22T10:51:43;5.63;;;3.75;;
934;SDS011;454;53.254;10.400;2023-11-22T10:54:14;5.18;;;4.55;;
934;SDS011;454;53.254;10.400;2023-11-22T10:56:43;3.80;;;3.60;;
934;SDS011;454;53.254;10.400;2023-11-22T10:59:17;3.55;;;3.25;;
934;SDS011;454;53.254;10.400;2023-11-22T11:01:48;2.33;;;2.25;;
934;SDS011;454;53.254;10.400;2023-11-22T11:04:23;3.22;;;2.92;;
934;SDS011;454;53.254;10.400;2023-11-22T11:06:53;2.30;;;2.20;;
934;SDS011;454;53.254;10.400;2023-11-22T11:09:21;2.97;;;2.75;;
934;SDS011;454;53.254;10.400;2023-11-22T11:11:53;2.65;;;2.53;;
934;SDS011;454;53.254;10.400;2023-11-22T11:14:22;2.78;;;2.65;;
934;SDS011;454;53.254;10.400;2023-11-22T11:16:49;2.53;;;2.33;;
934;SDS011;454;53.254;10.400;2023-11-22T11:19:19;1.95;;;1.85;;
934;SDS011;454;53.254;10.400;2023-11-22T11:21:49;3.10;;;2.75;;
934;SDS011;454;53.254;10.400;2023-11-22T11:24:16;3.25;;;3.05;;
934;SDS011;454;53.254;10.400;2023-11-22T11:26:46;2.15;;;2.15;;
934;SDS011;454;53.254;10.400;2023-11-22T11:32:09;3.00;;;2.67;;
934;SDS011;454;53.254;10.400;2023-11-22T11:34:46;3.95;;;3.58;;
934;SDS011;454;53.254;10.400;2023-11-22T11:37:14;3.75;;;3.58;;
934;SDS011;454;53.254;10.400;2023-11-22T11:39:42;7.03;;;2.88;;
934;SDS011;454;53.254;10.400;2023-11-22T11:42:09;2.20;;;2.10;;
934;SDS011;454;53.254;10.400;2023-11-22T11:44:45;2.28;;;2.17;;
934;SDS011;454;53.254;10.400;2023-11-22T11:47:18;2.35;;;2.20;;
934;SDS011;454;53.254;10.400;2023-11-22T11:49:45;2.13;;;2.03;;
934;SDS011;454;53.254;10.400;2023-11-22T11:52:14;2.63;;;2.50;;
934;SDS011;454;53.254;10.400;2023-11-22T11:54:41;2.30;;;2.15;;
934;SDS011;454;53.254;10.400;2023-11-22T11:57:08;1.90;;;1.48;;
934;SDS011;454;53.254;10.400;2023-11-22T11:59:35;2.83;;;2.63;;
934;SDS011;454;53.254;10.400;2023-11-22T12:02:04;1.33;;;1.33;;
934;SDS011;454;53.254;10.400;2023-11-22T12:04:32;2.47;;;1.80;;
934;SDS011;454;53.254;10.400;2023-11-22T12:06:59;1.80;;;1.55;;
934;SDS011;454;53.254;10.400;2023-11-22T12:09:26;2.70;;;1.88;;
934;SDS011;454;53.254;10.400;2023-11-22T12:11:54;1.95;;;1.85;;
934;SDS011;454;53.254;10.400;2023-11-22T12:14:22;3.20;;;2.95;;
934;SDS011;454;53.254;10.400;2023-11-22T12:16:50;1.63;;;1.63;;
934;SDS011;454;53.254;10.400;2023-11-22T12:19:24;2.70;;;1.65;;
934;SDS011;454;53.254;10.400;2023-11-22T12:21:53;1.65;;;1.55;;
934;SDS011;454;53.254;10.400;2023-11-22T12:24:20;3.53;;;2.47;;
934;SDS011;454;53.254;10.400;2023-11-22T12:26:47;2.47;;;2.17;;
934;SDS011;454;53.254;10.400;2023-11-22T12:29:15;2.17;;;2.08;;
934;SDS011;454;53.254;10.400;2023-11-22T12:31:44;1.40;;;1.40;;
934;SDS011;454;53.254;10.400;2023-11-22T12:34:12;3.25;;;2.40;;
934;SDS011;454;53.254;10.400;2023-11-22T12:36:42;2.75;;;2.47;;
934;SDS011;454;53.254;10.400;2023-11-22T12:39:09;2.60;;;2.50;;
934;SDS011;454;53.254;10.400;2023-11-22T12:41:42;3.55;;;2.65;;
934;SDS011;454;53.254;10.400;2023-11-22T12:44:10;2.95;;;2.75;;
934;SDS011;454;53.254;10.400;2023-11-22T12:46:46;2.83;;;2.58;;
934;SDS011;454;53.254;10.400;2023-11-22T12:49:20;2.15;;;2.05;;
934;SDS011;454;53.254;10.400;2023-11-22T12:51:49;4.22;;;3.55;;
934;SDS011;454;53.254;10.400;2023-11-22T12:54:18;1.85;;;1.80;;
934;SDS011;454;53.254;10.400;2023-11-22T12:56:46;2.20;;;2.10;;
934;SDS011;454;53.254;10.400;2023-11-22T12:59:15;2.40;;;2.25;;
934;SDS011;454;53.254;10.400;2023-11-22T13:01:43;4.15;;;3.10;;
934;SDS011;454;53.254;10.400;2023-11-22T13:04:10;2.17;;;2.15;;
934;SDS011;454;53.254;10.400;2023-11-22T13:06:39;2.53;;;2.40;;
934;SDS011;454;53.254;10.400;2023-11-22T13:09:08;2.28;;;2.17;;
934;SDS011;454;53.254;10.400;2023-11-22T13:11:40;2.15;;;2.10;;
934;SDS011;454;53.254;10.400;2023-11-22T13:14:07;2.22;;;2.10;;
934;SDS011;454;53.254;10.400;2023-11-22T13:16:34;1.42;;;1.30;;
934;SDS011;454;53.254;10.400;2023-11-22T13:19:03;1.80;;;1.70;;
934;SDS011;454;53.254;10.400;2023-11-22T13:21:31;2.92;;;2.45;;
934;SDS011;454;53.254;10.400;2023-11-22T13:23:58;2.03;;;1.92;;
934;SDS011;454;53.254;10.400;2023-11-22T13:26:26;4.75;;;2.33;;
934;SDS011;454;53.254;10.400;2023-11-22T13:28:53;4.20;;;1.92;;
934;SDS011;454;53.254;10.400;2023-11-22T13:31:21;4.22;;;2.00;;
934;SDS011;454;53.254;10.400;2023-11-22T13:33:49;2.65;;;2.55;;
934;SDS011;454;53.254;10.400;2023-11-22T13:36:16;4.95;;;1.95;;
934;SDS011;454;53.254;10.400;2023-11-22T13:38:43;1.92;;;1.83;;
934;SDS011;454;53.254;10.400;2023-11-22T13:41:10;5.15;;;2.10;;
934;SDS011;454;53.254;10.400;2023-11-22T13:43:38;2.00;;;1.90;;
934;SDS011;454;53.254;10.400;2023-11-22T13:46:05;2.70;;;1.70;;
934;SDS011;454;53.254;10.400;2023-11-22T13:48:35;1.60;;;1.45;;
934;SDS011;454;53.254;10.400;2023-11-22T13:51:02;2.20;;;1.60;;
934;SDS011;454;53.254;10.400;2023-11-22T13:53:29;2.20;;;1.42;;
934;SDS011;454;53.254;10.400;2023-11-22T13:55:59;1.55;;;1.40;;
934;SDS011;454;53.254;10.400;2023-11-22T13:58:33;2.15;;;2.05;;
934;SDS011;454;53.254;10.400;2023-11-22T14:01:02;1.65;;;1.58;;
934;SDS011;454;53.254;10.400;2023-11-22T14:03:31;1.88;;;1.33;;
934;SDS011;454;53.254;10.400;2023-11-22T14:05:58;1.63;;;1.63;;
934;SDS011;454;53.254;10.400;2023-11-22T14:08:25;1.30;;;1.30;;
934;SDS011;454;53.254;10.400;2023-11-22T14:10:52;2.40;;;1.38;;
934;SDS011;454;53.254;10.400;2023-11-22T14:13:19;3.40;;;1.15;;
934;SDS011;454;53.254;10.400;2023-11-22T14:15:46;1.30;;;1.30;;
934;SDS011;454;53.254;10.400;2023-11-22T14:18:15;1.77;;;1.65;;
934;SDS011;454;53.254;10.400;2023-11-22T14:20:42;1.25;;;1.20;;
934;SDS011;454;53.254;10.400;2023-11-22T14:23:09;1.77;;;1.73;;
934;SDS011;454;53.254;10.400;2023-11-22T14:25:36;2.08;;;1.92;;
934;SDS011;454;53.254;10.400;2023-11-22T14:28:03;1.75;;;1.65;;
934;SDS011;454;53.254;10.400;2023-11-22T14:30:30;1.77;;;1.58;;
934;SDS011;454;53.254;10.400;2023-11-22T14:33:00;1.60;;;1.27;;
934;SDS011;454;53.254;10.400;2023-11-22T14:35:32;1.27;;;1.27;;
934;SDS011;454;53.254;10.400;2023-11-22T14:38:00;1.30;;;1.20;;
934;SDS011;454;53.254;10.400;2023-11-22T14:40:28;1.77;;;1.45;;
934;SDS011;454;53.254;10.400;2023-11-22T14:42:56;2.47;;;1.98;;
934;SDS011;454;53.254;10.400;2023-11-22T14:45:23;1.80;;;1.70;;
934;SDS011;454;53.254;10.400;2023-11-22T14:47:51;1.25;;;1.15;;
934;SDS011;454;53.254;10.400;2023-11-22T14:50:18;1.42;;;1.33;;
934;SDS011;454;53.254;10.400;2023-11-22T14:52:47;2.35;;;1.73;;
934;SDS011;454;53.254;10.400;2023-11-22T14:55:15;1.55;;;1.55;;
934;SDS011;454;53.254;10.400;2023-11-22T14:57:43;1.73;;;1.65;;
934;SDS011;454;53.254;10.400;2023-11-22T15:00:10;2.33;;;2.08;;
934;SDS011;454;53.254;10.400;2023-11-22T15:02:39;1.80;;;1.70;;
934;SDS011;454;53.254;10.400;2023-11-22T15:05:07;2.13;;;1.35;;
934;SDS011;454;53.254;10.400;2023-11-22T15:07:35;2.70;;;1.40;;
934;SDS011;454;53.254;10.400;2023-11-22T15:10:04;1.77;;;1.70;;
934;SDS011;454;53.254;10.400;2023-11-22T15:12:32;1.20;;;1.20;;
934;SDS011;454;53.254;10.400;2023-11-22T15:14:59;2.00;;;1.90;;
934;SDS011;454;53.254;10.400;2023-11-22T15:17:27;1.38;;;1.38;;
934;SDS011;454;53.254;10.400;2023-11-22T15:19:54;3.03;;;1.80;;
934;SDS011;454;53.254;10.400;2023-11-22T15:22:21;2.20;;;2.10;;
934;SDS011;454;53.254;10.400;2023-11-22T15:24:48;2.25;;;1.58;;
934;SDS011;454;53.254;10.400;2023-11-22T15:27:16;1.73;;;1.73;;
934;SDS011;454;53.254;10.400;2023-11-22T15:29:43;2.47;;;2.28;;
934;SDS011;454;53.254;10.400;2023-11-22T15:32:11;1.85;;;1.73;;
934;SDS011;454;53.254;10.400;2023-11-22T15:34:39;2.45;;;2.35;;
934;SDS011;454;53.254;10.400;2023-11-22T15:37:06;2.08;;;1.98;;
934;SDS011;454;53.254;10.400;2023-11-22T15:39:36;2.00;;;1.90;;
934;SDS011;454;53.254;10.400;2023-11-22T15:42:03;1.77;;;1.77;;
934;SDS011;454;53.254;10.400;2023-11-22T15:44:32;1.23;;;1.23;;
934;SDS011;454;53.254;10.400;2023-11-22T15:46:59;2.10;;;1.92;;
934;SDS011;454;53.254;10.400;2023-11-22T15:49:29;1.50;;;1.40;;
934;SDS011;454;53.254;10.400;2023-11-22T15:51:56;3.10;;;2.90;;
934;SDS011;454;53.254;10.400;2023-11-22T15:54:23;1.90;;;1.73;;
934;SDS011;454;53.254;10.400;2023-11-22T15:56:50;2.00;;;1.90;;
934;SDS011;454;53.254;10.400;2023-11-22T15:59:17;2.45;;;2.35;;
934;SDS011;454;53.254;10.400;2023-11-22T16:01:45;1.23;;;1.23;;
934;SDS011;454;53.254;10.400;2023-11-22T16:04:12;3.28;;;2.00;;
934;SDS011;454;53.254;10.400;2023-11-22T16:06:39;2.67;;;2.47;;
934;SDS011;454;53.254;10.400;2023-11-22T16:09:06;2.28;;;2.05;;
934;SDS011;454;53.254;10.400;2023-11-22T16:11:37;1.95;;;1.60;;
934;SDS011;454;53.254;10.400;2023-11-22T16:14:04;1.50;;;1.40;;
934;SDS011;454;53.254;10.400;2023-11-22T16:16:31;2.30;;;2.20;;
934;SDS011;454;53.254;10.400;2023-11-22T16:18:59;2.15;;;1.80;;
934;SDS011;454;53.254;10.400;2023-11-22T16:21:27;1.90;;;1.80;;
934;SDS011;454;53.254;10.400;2023-11-22T16:23:54;2.72;;;2.47;;
934;SDS011;454;53.254;10.400;2023-11-22T16:26:20;2.33;;;2.15;;
934;SDS011;454;53.254;10.400;2023-11-22T16:28:48;3.13;;;1.85;;
934;SDS011;454;53.254;10.400;2023-11-22T16:31:15;6.90;;;3.50;;
934;SDS011;454;53.254;10.400;2023-11-22T16:33:44;3.65;;;3.35;;
934;SDS011;454;53.254;10.400;2023-11-22T16:36:13;5.20;;;2.97;;
934;SDS011;454;53.254;10.400;2023-11-22T16:38:40;3.15;;;2.85;;
934;SDS011;454;53.254;10.400;2023-11-22T16:41:09;2.05;;;1.95;;
934;SDS011;454;53.254;10.400;2023-11-22T16:43:36;2.45;;;2.00;;
934;SDS011;454;53.254;10.400;2023-11-22T16:46:03;2.38;;;2.17;;
934;SDS011;454;53.254;10.400;2023-11-22T16:48:31;2.67;;;2.47;;
934;SDS011;454;53.254;10.400;2023-11-22T16:50:58;2.38;;;2.28;;
934;SDS011;454;53.254;10.400;2023-11-22T16:53:26;2.35;;;2.28;;
934;SDS011;454;53.254;10.400;2023-11-22T16:55:53;2.15;;;1.92;;
934;SDS011;454;53.254;10.400;2023-11-22T16:58:20;5.15;;;3.20;;
934;SDS011;454;53.254;10.400;2023-11-22T17:00:47;2.80;;;2.60;;
934;SDS011;454;53.254;10.400;2023-11-22T17:03:16;2.30;;;2.20;;
934;SDS011;454;53.254;10.400;2023-11-22T17:05:43;10.85;;;3.50;;
934;SDS011;454;53.254;10.400;2023-11-22T17:08:11;3.63;;;3.33;;
934;SDS011;454;53.254;10.400;2023-11-22T17:10:40;3.65;;;3.35;;
934;SDS011;454;53.254;10.400;2023-11-22T17:13:07;3.38;;;3.10;;
934;SDS011;454;53.254;10.400;2023-11-22T17:15:36;9.07;;;3.30;;
934;SDS011;454;53.254;10.400;2023-11-22T17:18:04;2.97;;;2.88;;
934;SDS011;454;53.254;10.400;2023-11-22T17:20:31;3.20;;;2.95;;
934;SDS011;454;53.254;10.400;2023-11-22T17:22:58;3.55;;;3.35;;
934;SDS011;454;53.254;10.400;2023-11-22T17:25:25;3.55;;;3.35;;
934;SDS011;454;53.254;10.400;2023-11-22T17:27:54;4.75;;;2.75;;
934;SDS011;454;53.254;10.400;2023-11-22T17:30:24;3.17;;;2.85;;
934;SDS011;454;53.254;10.400;2023-11-22T17:32:50;3.08;;;2.88;;
934;SDS011;454;53.254;10.400;2023-11-22T17:35:17;3.63;;;3.30;;
934;SDS011;454;53.254;10.400;2023-11-22T17:37:45;3.90;;;2.85;;
934;SDS011;454;53.254;10.400;2023-11-22T17:40:14;4.57;;;3.20;;
934;SDS011;454;53.254;10.400;2023-11-22T17:42:41;5.05;;;3.40;;
934;SDS011;454;53.254;10.400;2023-11-22T17:45:10;5.32;;;3.90;;
934;SDS011;454;53.254;10.400;2023-11-22T17:47:37;5.13;;;3.67;;
934;SDS011;454;53.254;10.400;2023-11-22T17:50:04;4.93;;;3.47;;
934;SDS011;454;53.254;10.400;2023-11-22T17:52:31;6.03;;;3.45;;
934;SDS011;454;53.254;10.400;2023-11-22T17:54:58;4.22;;;3.95;;
934;SDS011;454;53.254;10.400;2023-11-22T17:57:25;5.70;;;3.50;;
934;SDS011;454;53.254;10.400;2023-11-22T17:59:52;4.10;;;3.50;;
934;SDS011;454;53.254;10.400;2023-11-22T18:02:21;3.88;;;2.90;;
934;SDS011;454;53.254;10.400;2023-11-22T18:04:48;3.38;;;3.17;;
934;SDS011;454;53.254;10.400;2023-11-22T18:07:15;4.90;;;4.00;;
934;SDS011;454;53.254;10.400;2023-11-22T18:09:42;4.18;;;3.80;;
934;SDS011;454;53.254;10.400;2023-11-22T18:12:09;6.35;;;3.60;;
934;SDS011;454;53.254;10.400;2023-11-22T18:14:36;3.58;;;3.38;;
934;SDS011;454;53.254;10.400;2023-11-22T18:17:03;3.53;;;3.22;;
934;SDS011;454;53.254;10.400;2023-11-22T18:19:31;6.30;;;4.03;;
934;SDS011;454;53.254;10.400;2023-11-22T18:21:58;3.53;;;3.20;;
934;SDS011;454;53.254;10.400;2023-11-22T18:24:25;5.07;;;3.08;;
934;SDS011;454;53.254;10.400;2023-11-22T18:26:54;8.93;;;4.05;;
934;SDS011;454;53.254;10.400;2023-11-22T18:29:22;4.85;;;3.63;;
934;SDS011;454;53.254;10.400;2023-11-22T18:31:52;3.50;;;3.20;;
934;SDS011;454;53.254;10.400;2023-11-22T18:34:20;3.47;;;3.17;;
934;SDS011;454;53.254;10.400;2023-11-22T18:36:49;4.85;;;4.43;;
934;SDS011;454;53.254;10.400;2023-11-22T18:39:16;3.45;;;3.08;;
934;SDS011;454;53.254;10.400;2023-11-22T18:41:43;4.88;;;4.40;;
934;SDS011;454;53.254;10.400;2023-11-22T18:44:10;4.05;;;3.55;;
934;SDS011;454;53.254;10.400;2023-11-22T18:46:37;3.75;;;3.45;;
934;SDS011;454;53.254;10.400;2023-11-22T18:49:03;16.75;;;10.55;;
934;SDS011;454;53.254;10.400;2023-11-22T18:51:32;7.80;;;6.43;;
934;SDS011;454;53.254;10.400;2023-11-22T18:54:04;17.17;;;9.90;;
934;SDS011;454;53.254;10.400;2023-11-22T18:56:35;38.88;;;14.80;;
934;SDS011;454;53.254;10.400;2023-11-22T18:59:03;3.92;;;3.63;;
934;SDS011;454;53.254;10.400;2023-11-22T19:01:30;17.80;;;7.50;;
934;SDS011;454;53.254;10.400;2023-11-22T19:03:59;6.70;;;5.57;;
934;SDS011;454;53.254;10.400;2023-11-22T19:06:25;21.30;;;13.75;;
934;SDS011;454;53.254;10.400;2023-11-22T19:08:53;34.13;;;16.45;;
934;SDS011;454;53.254;10.400;2023-11-22T19:11:21;20.17;;;9.27;;
934;SDS011;454;53.254;10.400;2023-11-22T19:13:49;12.80;;;7.60;;
934;SDS011;454;53.254;10.400;2023-11-22T19:16:19;17.88;;;10.48;;
934;SDS011;454;53.254;10.400;2023-11-22T19:18:46;11.23;;;7.75;;
934;SDS011;454;53.254;10.400;2023-11-22T19:21:16;5.03;;;3.95;;
934;SDS011;454;53.254;10.400;2023-11-22T19:23:44;3.97;;;3.65;;
934;SDS011;454;53.254;10.400;2023-11-22T19:26:11;6.15;;;4.35;;
934;SDS011;454;53.254;10.400;2023-11-22T19:28:39;4.47;;;4.15;;
934;SDS011;454;53.254;10.400;2023-11-22T19:31:08;3.25;;;2.95;;
934;SDS011;454;53.254;10.400;2023-11-22T19:33:35;4.68;;;4.30;;
934;SDS011;454;53.254;10.400;2023-11-22T19:36:02;4.97;;;3.78;;
934;SDS011;454;53.254;10.400;2023-11-22T19:38:30;3.35;;;3.05;;
934;SDS011;454;53.254;10.400;2023-11-22T19:40:57;3.55;;;3.25;;
934;SDS011;454;53.254;10.400;2023-11-22T19:43:24;8.57;;;3.03;;
934;SDS011;454;53.254;10.400;2023-11-22T19:45:52;3.15;;;2.92;;
934;SDS011;454;53.254;10.400;2023-11-22T19:48:19;3.67;;;2.83;;
934;SDS011;454;53.254;10.400;2023-11-22T19:50:46;2.95;;;2.75;;
934;SDS011;454;53.254;10.400;2023-11-22T19:53:14;3.35;;;3.05;;
934;SDS011;454;53.254;10.400;2023-11-22T19:55:42;4.75;;;3.40;;
934;SDS011;454;53.254;10.400;2023-11-22T19:58:08;3.78;;;3.45;;
934;SDS011;454;53.254;10.400;2023-11-22T20:00:37;2.80;;;2.40;;
934;SDS011;454;53.254;10.400;2023-11-22T20:03:05;3.60;;;3.28;;
934;SDS011;454;53.254;10.400;2023-11-22T20:05:32;6.50;;;3.72;;
934;SDS011;454;53.254;10.400;2023-11-22T20:07:59;2.50;;;2.30;;
934;SDS011;454;53.254;10.400;2023-11-22T20:10:26;2.08;;;1.98;;
934;SDS011;454;53.254;10.400;2023-11-22T20:12:53;2.72;;;2.58;;
934;SDS011;454;53.254;10.400;2023-11-22T20:15:20;2.40;;;2.33;;
934;SDS011;454;53.254;10.400;2023-11-22T20:17:47;6.45;;;3.78;;
934;SDS011;454;53.254;10.400;2023-11-22T20:20:15;4.05;;;3.85;;
934;SDS011;454;53.254;10.400;2023-11-22T20:22:42;3.38;;;2.50;;
934;SDS011;454;53.254;10.400;2023-11-22T20:25:10;1.90;;;1.80;;
934;SDS011;454;53.254;10.400;2023-11-22T20:27:37;2.83;;;2.67;;
934;SDS011;454;53.254;10.400;2023-11-22T20:30:04;2.47;;;2.28;;
934;SDS011;454;53.254;10.400;2023-11-22T20:32:32;14.80;;;7.75;;
934;SDS011;454;53.254;10.400;2023-11-22T20:34:59;3.03;;;2.50;;